Time;durP1;ratioP1;P1;durP2;ratioP2;P2;SDS_P1;SDS_P2;PMS_P1;PMS_P2;Temp;Humidity;BMP_temperature;BMP_pressure;BME280_temperature;BME280_humidity;BME280_pressure;Samples;Min_cycle;Max_cycle;Signal;HPM_P1;HPM_P2
2023/03/31 00:00:21;;;;;;;8.43;2.65;;;11.00;99.90;;;;;;5093733;28;20373;-78
2023/03/31 00:02:47;;;;;;;12.38;2.58;;;10.70;99.90;;;;;;5094047;28;20059;-78
2023/03/31 00:05:16;;;;;;;17.92;4.13;;;10.80;99.90;;;;;;5093937;28;20411;-79
2023/03/31 00:07:44;;;;;;;16.98;2.90;;;10.70;99.90;;;;;;5093852;28;20083;-78
2023/03/31 00:10:10;;;;;;;13.13;3.03;;;10.70;99.90;;;;;;5093477;28;20044;-78
2023/03/31 00:12:36;;;;;;;15.07;2.95;;;10.60;99.90;;;;;;5093814;28;20046;-78
2023/03/31 00:15:02;;;;;;;13.73;3.15;;;10.60;99.90;;;;;;5093792;28;20058;-78
2023/03/31 00:17:27;;;;;;;17.63;2.92;;;10.60;99.90;;;;;;5093764;28;20051;-78
2023/03/31 00:19:58;;;;;;;14.30;3.15;;;10.60;99.90;;;;;;5093359;28;20044;-78
2023/03/31 00:22:26;;;;;;;10.80;2.65;;;10.60;99.90;;;;;;5093406;28;20504;-78
2023/03/31 00:24:52;;;;;;;16.17;3.15;;;10.50;99.90;;;;;;5093438;28;20113;-78
2023/03/31 00:27:17;;;;;;;14.48;2.53;;;10.50;99.90;;;;;;5093649;28;20036;-77
2023/03/31 00:29:44;;;;;;;16.15;3.08;;;10.40;99.90;;;;;;5093606;28;20490;-78
2023/03/31 00:32:10;;;;;;;11.00;2.65;;;10.40;99.90;;;;;;5093560;28;20058;-78
2023/03/31 00:34:36;;;;;;;16.77;3.53;;;10.50;99.90;;;;;;5093369;28;20131;-78
2023/03/31 00:37:02;;;;;;;10.43;2.50;;;10.30;99.90;;;;;;5093374;28;20048;-78
2023/03/31 00:39:34;;;;;;;15.95;3.53;;;10.20;99.90;;;;;;5093121;28;20466;-78
2023/03/31 00:42:03;;;;;;;13.10;3.03;;;10.10;99.90;;;;;;5093260;28;20054;-78
2023/03/31 00:44:33;;;;;;;11.68;2.95;;;10.20;99.90;;;;;;5093445;28;20480;-78
2023/03/31 00:47:28;;;;;;;12.93;2.65;;;10.00;99.90;;;;;;5092284;28;20040;-78
2023/03/31 00:49:56;;;;;;;16.55;3.55;;;10.00;99.90;;;;;;5091443;28;20052;-78
2023/03/31 00:52:36;;;;;;;17.92;3.75;;;10.00;99.90;;;;;;5093116;28;20048;-78
2023/03/31 00:55:11;;;;;;;12.45;3.28;;;9.90;99.90;;;;;;5093641;28;20040;-78
2023/03/31 00:57:39;;;;;;;13.07;3.22;;;9.80;99.90;;;;;;5097292;28;20376;-78
2023/03/31 01:00:15;;;;;;;12.18;3.50;;;9.80;99.90;;;;;;5097488;28;20048;-78
2023/03/31 01:02:50;;;;;;;17.95;3.70;;;9.80;99.90;;;;;;5097415;28;20140;-78
2023/03/31 01:05:20;;;;;;;22.60;3.72;;;9.80;99.90;;;;;;5097585;28;20079;-78
2023/03/31 01:07:49;;;;;;;11.55;3.63;;;9.70;99.90;;;;;;5097376;28;20040;-78
2023/03/31 01:10:15;;;;;;;12.18;4.13;;;9.70;99.90;;;;;;5097014;28;20127;-78
2023/03/31 01:12:44;;;;;;;15.02;3.60;;;9.70;99.90;;;;;;5096032;28;20143;-78
2023/03/31 01:15:11;;;;;;;15.20;3.92;;;9.60;99.90;;;;;;5097045;28;20483;-78
2023/03/31 01:17:36;;;;;;;15.18;3.75;;;9.60;99.90;;;;;;5095920;28;20087;-78
2023/03/31 01:20:10;;;;;;;9.13;4.03;;;9.90;99.90;;;;;;5097138;28;20083;-78
2023/03/31 01:23:13;;;;;;;18.52;4.03;;;9.60;99.90;;;;;;5079529;28;20117;-78
2023/03/31 01:26:01;;;;;;;13.52;3.55;;;9.60;99.90;;;;;;5096870;28;20048;-78
2023/03/31 01:28:38;;;;;;;14.73;4.43;;;9.50;99.90;;;;;;5096835;28;20047;-78
2023/03/31 01:31:20;;;;;;;15.90;3.80;;;9.50;99.90;;;;;;5096743;28;20052;-78
2023/03/31 01:34:23;;;;;;;12.80;3.63;;;9.50;99.90;;;;;;5096813;28;20051;-78
2023/03/31 01:37:17;;;;;;;15.43;3.85;;;9.50;99.90;;;;;;5096619;28;20574;-78
2023/03/31 01:39:51;;;;;;;16.60;4.07;;;9.40;99.90;;;;;;5096592;28;20148;-78
2023/03/31 01:42:41;;;;;;;8.15;3.50;;;9.50;99.90;;;;;;5096676;28;20432;-78
2023/03/31 01:45:32;;;;;;;14.63;3.65;;;9.50;99.90;;;;;;5096668;28;20036;-78
2023/03/31 01:48:13;;;;;;;10.00;3.78;;;9.50;99.90;;;;;;5096062;28;20036;-78
2023/03/31 01:51:06;;;;;;;9.85;3.40;;;9.50;99.90;;;;;;5096158;28;20052;-78
2023/03/31 01:53:55;;;;;;;15.85;3.70;;;9.50;99.90;;;;;;5096451;28;20044;-78
2023/03/31 01:56:29;;;;;;;10.73;3.40;;;9.80;99.90;;;;;;5096451;28;20094;-78
2023/03/31 01:59:19;;;;;;;11.93;3.30;;;9.50;99.90;;;;;;5096279;28;20047;-78
2023/03/31 02:02:11;;;;;;;12.80;4.10;;;9.50;99.90;;;;;;5095438;28;20418;-78
2023/03/31 02:04:41;;;;;;;11.32;3.28;;;9.50;99.90;;;;;;5096209;28;20044;-78
2023/03/31 02:07:11;;;;;;;10.80;3.65;;;9.50;99.90;;;;;;5095426;28;20040;-78
2023/03/31 02:09:45;;;;;;;12.80;3.03;;;9.50;99.90;;;;;;5096058;28;20113;-78
2023/03/31 02:12:12;;;;;;;10.98;3.28;;;9.60;99.90;;;;;;5096233;28;20083;-78
2023/03/31 02:14:42;;;;;;;21.23;3.53;;;9.50;99.90;;;;;;5096071;28;20087;-78
2023/03/31 02:17:14;;;;;;;10.32;3.30;;;9.40;99.90;;;;;;5095922;28;20471;-78
2023/03/31 02:19:43;;;;;;;8.50;2.83;;;9.50;99.90;;;;;;5096006;28;20040;-76
2023/03/31 02:22:09;;;;;;;10.00;2.70;;;9.50;99.90;;;;;;5095809;28;20056;-78
2023/03/31 02:24:37;;;;;;;8.25;3.10;;;9.50;99.90;;;;;;5095787;28;20047;-78
2023/03/31 02:27:16;;;;;;;12.73;3.45;;;9.50;99.90;;;;;;5094878;28;20044;-78
2023/03/31 02:29:42;;;;;;;9.70;2.85;;;9.50;99.90;;;;;;5095874;28;20052;-78
2023/03/31 02:32:22;;;;;;;15.50;3.00;;;9.60;99.90;;;;;;5095486;28;20192;-78
2023/03/31 02:34:48;;;;;;;10.57;2.80;;;9.50;99.90;;;;;;5095855;28;20044;-78
2023/03/31 02:37:14;;;;;;;10.18;2.70;;;9.50;99.90;;;;;;5095766;28;20045;-78
2023/03/31 02:39:43;;;;;;;11.88;3.55;;;9.70;99.90;;;;;;5095280;28;20495;-78
2023/03/31 02:42:09;;;;;;;10.70;3.85;;;9.50;99.90;;;;;;5094290;28;20381;-78
2023/03/31 02:44:37;;;;;;;14.10;3.10;;;9.90;99.90;;;;;;5095347;28;20040;-78
2023/03/31 02:47:06;;;;;;;12.50;2.58;;;9.60;99.90;;;;;;5095249;28;20361;-78
2023/03/31 02:49:32;;;;;;;13.40;3.78;;;9.60;99.90;;;;;;5094996;28;20491;-79
2023/03/31 02:52:04;;;;;;;7.63;2.53;;;9.60;99.90;;;;;;5095379;28;20044;-78
2023/03/31 02:55:09;;;;;;;17.48;2.70;;;9.60;99.90;;;;;;5095153;28;20044;-78
2023/03/31 02:58:05;;;;;;;10.48;2.85;;;9.70;99.90;;;;;;5095156;28;20490;-78
2023/03/31 03:01:27;;;;;;;13.48;3.00;;;9.70;99.90;;;;;;5095177;28;20126;-78
2023/03/31 03:04:16;;;;;;;12.23;2.63;;;9.70;99.90;;;;;;5060895;28;20092;-78
2023/03/31 03:07:25;;;;;;;10.48;2.42;;;9.70;99.90;;;;;;5095545;28;20044;-78
2023/03/31 03:10:30;;;;;;;8.32;2.95;;;9.80;99.90;;;;;;5032307;28;20049;-78
2023/03/31 03:12:59;;;;;;;12.10;3.65;;;9.70;99.90;;;;;;5094402;28;20135;-78
2023/03/31 03:15:35;;;;;;;13.13;2.83;;;9.70;99.90;;;;;;5094981;28;20429;-79
2023/03/31 03:18:01;;;;;;;9.88;3.17;;;9.80;99.90;;;;;;5092885;28;20395;-78
2023/03/31 03:20:27;;;;;;;6.43;3.05;;;9.80;99.90;;;;;;5094444;28;20047;-78
2023/03/31 03:22:53;;;;;;;9.95;2.92;;;9.80;99.90;;;;;;5094576;28;20058;-78
2023/03/31 03:25:19;;;;;;;7.22;2.70;;;10.20;99.90;;;;;;5093566;28;20040;-78
2023/03/31 03:27:45;;;;;;;10.70;3.30;;;9.80;99.90;;;;;;5094708;28;20123;-78
2023/03/31 03:30:12;;;;;;;11.23;2.70;;;9.80;99.90;;;;;;5094241;28;20075;-78
2023/03/31 03:32:38;;;;;;;11.05;2.75;;;9.80;99.90;;;;;;5094411;28;20036;-78
2023/03/31 03:35:05;;;;;;;6.95;3.20;;;9.80;99.90;;;;;;5094033;28;20044;-78
2023/03/31 03:37:31;;;;;;;7.80;3.25;;;9.80;99.90;;;;;;5094259;28;20133;-78
2023/03/31 03:39:56;;;;;;;14.05;3.08;;;9.80;99.90;;;;;;5094478;28;20086;-78
2023/03/31 03:42:22;;;;;;;5.53;2.92;;;9.90;99.90;;;;;;5094587;28;20137;-78
2023/03/31 03:44:48;;;;;;;9.57;2.97;;;10.10;99.90;;;;;;5094298;28;20055;-79
2023/03/31 03:47:14;;;;;;;6.10;3.22;;;9.80;99.90;;;;;;5094077;28;20511;-79
2023/03/31 03:49:39;;;;;;;8.30;2.75;;;9.80;99.90;;;;;;5092715;28;20140;-79
2023/03/31 03:52:05;;;;;;;8.80;3.15;;;9.90;99.90;;;;;;5094110;28;20048;-79
2023/03/31 03:54:31;;;;;;;6.82;3.20;;;9.80;99.90;;;;;;5093902;28;20051;-79
2023/03/31 03:56:57;;;;;;;6.03;2.92;;;9.80;99.90;;;;;;5094025;28;20072;-79
2023/03/31 03:59:23;;;;;;;10.95;2.72;;;9.80;99.90;;;;;;5094145;28;20047;-79
2023/03/31 04:01:49;;;;;;;8.13;2.90;;;9.80;99.90;;;;;;5094013;28;20040;-79
2023/03/31 04:04:14;;;;;;;6.05;3.17;;;10.00;99.90;;;;;;5093556;28;20066;-79
2023/03/31 04:06:40;;;;;;;8.07;3.33;;;9.80;99.90;;;;;;5093485;28;20088;-80
2023/03/31 04:09:06;;;;;;;10.80;3.13;;;9.80;99.90;;;;;;5093999;28;20043;-80
2023/03/31 04:11:32;;;;;;;10.37;2.57;;;9.80;99.90;;;;;;5093922;28;20051;-79
2023/03/31 04:13:58;;;;;;;8.45;3.00;;;9.90;99.90;;;;;;5093727;28;20278;-79
2023/03/31 04:16:24;;;;;;;10.00;2.88;;;9.70;99.90;;;;;;5093714;28;20044;-79
2023/03/31 04:18:55;;;;;;;9.67;2.80;;;9.70;99.90;;;;;;5093629;28;20193;-79
2023/03/31 04:21:22;;;;;;;5.47;3.00;;;9.70;99.90;;;;;;5093744;28;20131;-79
2023/03/31 04:24:00;;;;;;;6.68;2.88;;;9.70;99.90;;;;;;5093730;28;20047;-79
2023/03/31 04:26:37;;;;;;;8.55;3.15;;;9.70;99.90;;;;;;5093628;28;20050;-79
2023/03/31 04:29:06;;;;;;;12.40;2.65;;;9.70;99.90;;;;;;5093866;28;20407;-79
2023/03/31 04:31:32;;;;;;;7.78;2.80;;;9.70;99.90;;;;;;5093508;28;20114;-79
2023/03/31 04:34:01;;;;;;;10.30;2.88;;;9.60;99.90;;;;;;5093373;28;20446;-79
2023/03/31 04:36:30;;;;;;;9.80;3.05;;;9.60;99.90;;;;;;5093724;28;20047;-79
2023/03/31 04:39:01;;;;;;;10.65;2.90;;;9.60;99.90;;;;;;5092007;28;20543;-79
2023/03/31 04:41:27;;;;;;;10.30;4.25;;;9.60;99.90;;;;;;5093400;28;20044;-79
2023/03/31 04:43:53;;;;;;;7.32;3.00;;;9.60;99.90;;;;;;5093287;28;20040;-79
2023/03/31 04:46:19;;;;;;;9.05;3.13;;;9.60;99.90;;;;;;5092299;28;20040;-79
2023/03/31 04:48:44;;;;;;;9.63;3.50;;;9.60;99.90;;;;;;5093257;28;20099;-80
2023/03/31 04:51:14;;;;;;;10.68;2.95;;;9.60;99.90;;;;;;5092163;28;20040;-80
2023/03/31 04:53:39;;;;;;;12.73;3.03;;;9.60;99.90;;;;;;5093612;28;20040;-80
2023/03/31 04:56:06;;;;;;;12.40;2.80;;;9.60;99.90;;;;;;5093276;28;20101;-80
2023/03/31 04:58:32;;;;;;;8.98;2.92;;;9.60;99.90;;;;;;5093287;28;20048;-80
2023/03/31 05:00:57;;;;;;;10.77;3.25;;;9.60;99.90;;;;;;5093242;28;20055;-79
2023/03/31 05:03:24;;;;;;;12.68;3.65;;;9.70;99.90;;;;;;5093106;28;20048;-79
2023/03/31 05:05:49;;;;;;;12.65;3.80;;;9.60;99.90;;;;;;5093340;28;20036;-79
2023/03/31 05:08:15;;;;;;;12.65;3.40;;;9.70;99.90;;;;;;5093137;28;20167;-80
2023/03/31 05:10:41;;;;;;;10.85;2.97;;;9.70;99.90;;;;;;5093152;28;20040;-80
2023/03/31 05:13:09;;;;;;;11.18;2.97;;;9.70;99.90;;;;;;5092898;28;20043;-80
2023/03/31 05:15:39;;;;;;;10.27;3.35;;;9.60;99.90;;;;;;5093131;28;20036;-80
2023/03/31 05:18:06;;;;;;;13.15;3.60;;;9.70;99.90;;;;;;5092908;28;20541;-80
2023/03/31 05:20:32;;;;;;;11.68;3.58;;;9.60;99.90;;;;;;5093422;28;20126;-79
2023/03/31 05:22:58;;;;;;;7.10;3.03;;;9.70;99.90;;;;;;5093124;28;20447;-80
2023/03/31 05:25:24;;;;;;;12.10;3.30;;;9.60;99.90;;;;;;5093171;28;20040;-79
2023/03/31 05:27:50;;;;;;;9.35;3.42;;;9.60;99.90;;;;;;5091994;28;20044;-79
2023/03/31 05:30:16;;;;;;;9.05;3.35;;;9.70;99.90;;;;;;5093069;28;20044;-78
2023/03/31 05:32:42;;;;;;;6.07;3.38;;;9.80;99.90;;;;;;5092589;28;20451;-79
2023/03/31 05:35:09;;;;;;;9.43;3.15;;;9.70;99.90;;;;;;5093016;28;20040;-78
2023/03/31 05:37:35;;;;;;;10.27;3.28;;;9.70;99.90;;;;;;5093246;28;20054;-78
2023/03/31 05:40:03;;;;;;;10.10;3.30;;;9.60;99.90;;;;;;5093154;28;20117;-79
2023/03/31 05:42:29;;;;;;;13.85;4.65;;;9.70;99.90;;;;;;5095445;28;20093;-79
2023/03/31 05:44:56;;;;;;;9.85;3.90;;;9.70;99.90;;;;;;5096751;28;20051;-79
2023/03/31 05:47:22;;;;;;;10.77;4.32;;;9.70;99.90;;;;;;5096529;28;20040;-83
2023/03/31 05:49:47;;;;;;;9.05;4.22;;;9.70;99.90;;;;;;5094977;28;20055;-84
2023/03/31 05:52:13;;;;;;;12.82;4.00;;;9.70;99.90;;;;;;5095750;28;20048;-81
2023/03/31 05:54:39;;;;;;;11.32;4.28;;;9.70;99.90;;;;;;5096270;28;20559;-81
2023/03/31 05:57:05;;;;;;;11.97;4.67;;;9.70;99.90;;;;;;5096459;28;20048;-79
2023/03/31 05:59:30;;;;;;;9.95;3.35;;;9.70;99.90;;;;;;5096436;28;20048;-79
2023/03/31 06:01:57;;;;;;;10.48;3.83;;;9.60;99.90;;;;;;5095327;28;20044;-81
2023/03/31 06:04:23;;;;;;;9.52;3.60;;;9.70;99.90;;;;;;5095144;28;20055;-81
2023/03/31 06:06:49;;;;;;;8.90;3.63;;;9.60;99.90;;;;;;5095179;28;20087;-80
2023/03/31 06:09:16;;;;;;;9.25;3.17;;;9.80;99.90;;;;;;5096125;28;20044;-79
2023/03/31 06:11:41;;;;;;;13.98;4.22;;;9.70;99.90;;;;;;5095852;28;20101;-79
2023/03/31 06:14:07;;;;;;;9.30;3.30;;;9.70;99.90;;;;;;5096040;28;20480;-87
2023/03/31 06:16:33;;;;;;;10.88;3.22;;;9.60;99.90;;;;;;5094652;28;20044;-81
2023/03/31 06:18:59;;;;;;;8.45;3.20;;;10.20;99.90;;;;;;5095928;28;20040;-79
2023/03/31 06:21:24;;;;;;;9.90;3.53;;;9.70;99.90;;;;;;5096194;28;20048;-79
2023/03/31 06:23:53;;;;;;;7.80;3.13;;;9.70;99.90;;;;;;5095929;28;20044;-78
2023/03/31 06:26:20;;;;;;;9.38;3.80;;;9.60;99.90;;;;;;5095287;28;20051;-78
2023/03/31 06:28:46;;;;;;;10.70;2.80;;;9.60;99.90;;;;;;5095801;28;20044;-80
2023/03/31 06:31:15;;;;;;;6.65;3.28;;;9.60;99.90;;;;;;5095507;28;20541;-78
2023/03/31 06:33:42;;;;;;;8.48;2.85;;;10.10;99.90;;;;;;5095759;28;20128;-77
2023/03/31 06:36:08;;;;;;;6.32;2.80;;;9.60;99.90;;;;;;5095308;28;20488;-77
2023/03/31 06:38:37;;;;;;;10.05;3.17;;;9.70;99.90;;;;;;5095655;28;20086;-76
2023/03/31 06:41:03;;;;;;;9.27;3.40;;;9.70;99.90;;;;;;5095599;28;20460;-77
2023/03/31 06:43:28;;;;;;;7.50;3.03;;;9.70;99.90;;;;;;5095631;28;20040;-80
2023/03/31 06:45:55;;;;;;;6.70;3.00;;;9.70;99.90;;;;;;5094929;28;20047;-78
2023/03/31 06:48:23;;;;;;;11.02;3.67;;;9.60;99.90;;;;;;5095989;28;20117;-82
2023/03/31 06:50:49;;;;;;;11.98;3.53;;;9.70;99.90;;;;;;5077472;28;20062;-80
2023/03/31 06:53:15;;;;;;;9.90;3.97;;;9.60;99.90;;;;;;5094388;28;20040;-79
2023/03/31 06:55:41;;;;;;;9.68;3.58;;;9.70;99.90;;;;;;5091878;28;20048;-80
2023/03/31 06:58:06;;;;;;;8.80;3.55;;;9.60;99.90;;;;;;5095074;28;20040;-79
2023/03/31 07:00:32;;;;;;;9.50;3.72;;;9.60;99.90;;;;;;5094896;28;20109;-79
2023/03/31 07:02:58;;;;;;;8.27;3.30;;;9.60;99.90;;;;;;5094363;28;20082;-80
2023/03/31 07:05:27;;;;;;;9.30;3.35;;;9.70;99.90;;;;;;5095372;28;20472;-80
2023/03/31 07:07:58;;;;;;;13.05;3.58;;;9.70;99.90;;;;;;5095278;28;20051;-80
2023/03/31 07:10:26;;;;;;;11.13;3.40;;;9.80;99.90;;;;;;5095162;28;20047;-78
2023/03/31 07:12:52;;;;;;;9.23;3.92;;;9.80;99.90;;;;;;5095153;28;20043;-79
2023/03/31 07:15:18;;;;;;;12.38;3.45;;;9.80;99.90;;;;;;5094826;28;20047;-79
2023/03/31 07:17:44;;;;;;;15.07;4.77;;;9.80;99.90;;;;;;5095089;28;20045;-79
2023/03/31 07:20:13;;;;;;;9.95;3.13;;;9.80;99.90;;;;;;5095241;28;20470;-79
2023/03/31 07:22:43;;;;;;;10.85;3.42;;;9.90;99.90;;;;;;5094948;28;20521;-79
2023/03/31 07:25:10;;;;;;;11.93;3.67;;;9.90;99.90;;;;;;5094931;28;20055;-78
2023/03/31 07:27:36;;;;;;;9.25;3.40;;;9.90;99.90;;;;;;5094765;28;20040;-79
2023/03/31 07:30:04;;;;;;;11.55;3.80;;;10.00;99.90;;;;;;5094661;28;20562;-79
2023/03/31 07:32:30;;;;;;;9.40;3.35;;;10.00;99.90;;;;;;5094777;28;20061;-79
2023/03/31 07:34:55;;;;;;;8.68;3.03;;;10.00;99.90;;;;;;5094754;28;20046;-79
2023/03/31 07:37:21;;;;;;;12.25;4.28;;;10.00;99.90;;;;;;5094663;28;20507;-79
2023/03/31 07:39:47;;;;;;;9.40;3.45;;;10.00;99.90;;;;;;5094972;28;20040;-79
2023/03/31 07:42:12;;;;;;;12.07;3.65;;;10.00;99.90;;;;;;5094629;28;20403;-80
2023/03/31 07:44:38;;;;;;;9.88;4.03;;;10.00;99.90;;;;;;5094581;28;20044;-79
2023/03/31 07:47:05;;;;;;;8.48;3.85;;;10.10;99.90;;;;;;5093258;28;20392;-79
2023/03/31 07:49:32;;;;;;;6.93;4.10;;;10.10;99.90;;;;;;5094153;28;20131;-79
2023/03/31 07:51:58;;;;;;;15.23;4.40;;;10.10;99.90;;;;;;5094404;28;20087;-78
2023/03/31 07:54:24;;;;;;;11.98;3.80;;;10.20;99.90;;;;;;5094363;28;20555;-79
2023/03/31 07:56:50;;;;;;;10.47;4.03;;;10.20;99.90;;;;;;5094659;28;20433;-79
2023/03/31 07:59:16;;;;;;;6.82;3.28;;;10.20;99.90;;;;;;5094484;28;20377;-78
2023/03/31 08:01:41;;;;;;;7.90;3.40;;;10.50;99.90;;;;;;5094340;28;20369;-79
2023/03/31 08:04:09;;;;;;;6.90;3.22;;;10.30;99.90;;;;;;5093941;28;20044;-80
2023/03/31 08:06:35;;;;;;;12.60;3.85;;;10.40;99.90;;;;;;5076370;28;20048;-79
2023/03/31 08:09:01;;;;;;;6.78;3.25;;;10.40;99.90;;;;;;5094112;28;20472;-79
2023/03/31 08:11:27;;;;;;;9.07;3.38;;;10.40;99.90;;;;;;5094087;28;20052;-79
2023/03/31 08:13:53;;;;;;;7.68;3.20;;;10.40;99.90;;;;;;5094004;28;20040;-79
2023/03/31 08:16:18;;;;;;;10.52;3.65;;;10.40;99.90;;;;;;5094258;28;20087;-78
2023/03/31 08:18:45;;;;;;;10.02;4.57;;;10.40;99.90;;;;;;5093831;28;20036;-79
2023/03/31 08:21:10;;;;;;;7.30;3.23;;;10.90;99.90;;;;;;5094105;28;20109;-79
2023/03/31 08:23:36;;;;;;;9.90;3.75;;;10.30;99.90;;;;;;5093898;28;20278;-77
2023/03/31 08:26:14;;;;;;;8.73;3.33;;;10.30;99.90;;;;;;5093724;28;20499;-78
2023/03/31 08:28:39;;;;;;;8.48;3.75;;;10.30;99.90;;;;;;5093888;28;20083;-78
2023/03/31 08:31:07;;;;;;;9.25;3.35;;;10.30;99.90;;;;;;5093790;28;20087;-78
2023/03/31 08:33:32;;;;;;;16.42;4.43;;;10.30;99.90;;;;;;5093813;28;20473;-78
2023/03/31 08:36:07;;;;;;;8.40;3.42;;;10.30;99.90;;;;;;5093789;28;20040;-78
2023/03/31 08:38:38;;;;;;;8.70;3.53;;;10.30;99.90;;;;;;5094042;28;20035;-78
2023/03/31 08:41:06;;;;;;;9.30;3.60;;;10.30;99.90;;;;;;5093636;28;20048;-78
2023/03/31 08:43:42;;;;;;;7.47;3.28;;;10.40;99.90;;;;;;5093582;28;20048;-78
2023/03/31 08:46:11;;;;;;;13.15;3.75;;;10.40;99.90;;;;;;5094138;28;20055;-78
2023/03/31 08:48:47;;;;;;;11.25;3.28;;;10.70;99.90;;;;;;5093342;28;20086;-79
2023/03/31 08:51:17;;;;;;;11.07;3.47;;;10.40;99.90;;;;;;5092631;28;20484;-78
2023/03/31 08:53:48;;;;;;;6.60;3.63;;;10.40;99.90;;;;;;5093579;28;20063;-79
2023/03/31 08:56:21;;;;;;;9.75;3.30;;;10.40;99.90;;;;;;5093810;28;20040;-77
2023/03/31 08:58:49;;;;;;;11.43;3.28;;;10.50;99.90;;;;;;5093376;28;20044;-79
2023/03/31 09:01:33;;;;;;;13.93;3.70;;;10.50;99.90;;;;;;5093355;28;20039;-78
2023/03/31 09:04:17;;;;;;;10.30;3.17;;;10.70;99.90;;;;;;5093291;28;20135;-78
2023/03/31 09:07:11;;;;;;;9.07;3.78;;;10.60;99.90;;;;;;5093510;28;20040;-78
2023/03/31 09:09:55;;;;;;;4.47;2.80;;;10.60;99.90;;;;;;5093125;28;20504;-79
2023/03/31 09:12:45;;;;;;;6.65;2.55;;;10.70;99.90;;;;;;5093426;28;20055;-79
2023/03/31 09:15:21;;;;;;;6.80;2.15;;;10.70;99.90;;;;;;5093749;28;20498;-78
2023/03/31 09:17:50;;;;;;;5.72;2.10;;;10.70;99.90;;;;;;5096312;28;20493;-79
2023/03/31 09:20:21;;;;;;;5.68;2.85;;;11.00;99.90;;;;;;5097216;28;20043;-78
2023/03/31 09:22:54;;;;;;;7.32;2.22;;;10.70;99.90;;;;;;5097453;28;20484;-78
2023/03/31 09:25:25;;;;;;;5.97;2.05;;;10.70;99.90;;;;;;5097226;28;20044;-78
2023/03/31 09:27:53;;;;;;;7.38;2.58;;;10.80;99.90;;;;;;5097245;28;20090;-78
2023/03/31 09:30:32;;;;;;;6.43;2.40;;;10.90;99.90;;;;;;5096989;28;20625;-78
2023/03/31 09:33:22;;;;;;;6.65;2.10;;;10.90;99.90;;;;;;5097572;28;20040;-78
2023/03/31 09:35:47;;;;;;;5.18;2.22;;;11.00;99.90;;;;;;5097435;28;20044;-80
2023/03/31 09:38:15;;;;;;;9.50;2.35;;;11.00;99.90;;;;;;5096913;28;20464;-78
2023/03/31 09:40:41;;;;;;;5.85;2.00;;;11.00;99.90;;;;;;5096998;28;20086;-79
2023/03/31 09:43:27;;;;;;;3.70;1.60;;;11.00;99.90;;;;;;5096643;28;20487;-79
2023/03/31 09:45:53;;;;;;;4.07;2.20;;;11.00;99.90;;;;;;5096819;28;20044;-78
2023/03/31 09:48:24;;;;;;;5.67;2.07;;;11.00;99.90;;;;;;5096696;28;20056;-78
2023/03/31 09:50:54;;;;;;;5.72;2.15;;;11.10;99.90;;;;;;5096775;28;20059;-78
2023/03/31 09:53:50;;;;;;;5.15;2.53;;;11.10;99.90;;;;;;5096825;28;20484;-79
2023/03/31 09:56:32;;;;;;;6.43;2.60;;;11.10;99.90;;;;;;5096745;28;20044;-79
2023/03/31 09:59:02;;;;;;;8.93;2.78;;;11.10;99.90;;;;;;5096454;28;20066;-78
2023/03/31 10:01:28;;;;;;;8.27;2.78;;;11.20;99.90;;;;;;5095481;28;20036;-80
2023/03/31 10:03:55;;;;;;;5.40;2.40;;;11.10;99.90;;;;;;5097939;28;20044;-83
2023/03/31 10:06:25;;;;;;;5.93;2.67;;;11.20;99.90;;;;;;5100720;28;20048;-84
2023/03/31 10:09:01;;;;;;;5.38;2.10;;;11.30;99.90;;;;;;5096376;28;20123;-80
2023/03/31 10:11:28;;;;;;;4.05;1.98;;;11.30;99.90;;;;;;5095510;28;20039;-78
2023/03/31 10:14:12;;;;;;;3.60;1.80;;;11.30;99.90;;;;;;5096324;28;20372;-78
2023/03/31 10:16:56;;;;;;;5.32;2.45;;;11.30;99.90;;;;;;5096059;28;20496;-78
2023/03/31 10:19:23;;;;;;;3.05;1.77;;;11.40;99.90;;;;;;5096113;28;20105;-78
2023/03/31 10:22:01;;;;;;;5.30;1.40;;;11.40;99.90;;;;;;5095755;28;20105;-79
2023/03/31 10:24:38;;;;;;;4.22;1.40;;;11.40;99.90;;;;;;5095140;28;20040;-84
2023/03/31 10:27:06;;;;;;;4.68;1.73;;;11.90;99.90;;;;;;5094524;28;20465;-79
2023/03/31 10:29:33;;;;;;;4.50;1.80;;;11.50;99.90;;;;;;5095004;28;20032;-83
2023/03/31 10:32:27;;;;;;;6.63;1.90;;;11.60;99.90;;;;;;5095908;28;20515;-76
2023/03/31 10:34:55;;;;;;;3.17;1.73;;;11.90;99.90;;;;;;5095872;28;20403;-78
2023/03/31 10:37:23;;;;;;;3.90;1.40;;;11.70;99.90;;;;;;5095817;28;20048;-79
2023/03/31 10:40:02;;;;;;;4.35;1.58;;;12.00;99.90;;;;;;5095490;28;20471;-78
2023/03/31 10:42:28;;;;;;;5.22;1.63;;;12.00;99.90;;;;;;5095536;28;20472;-81
2023/03/31 10:45:25;;;;;;;3.53;1.37;;;12.00;99.90;;;;;;5096113;28;20051;-79
2023/03/31 10:47:53;;;;;;;3.67;1.33;;;12.00;99.90;;;;;;5095452;28;20044;-74
2023/03/31 10:50:31;;;;;;;3.50;1.42;;;11.90;99.90;;;;;;5095707;28;20052;-81
2023/03/31 10:53:06;;;;;;;2.88;1.40;;;11.90;99.90;;;;;;5095619;28;20086;-83
2023/03/31 10:55:45;;;;;;;3.80;1.25;;;11.90;99.90;;;;;;5094287;28;20506;-79
2023/03/31 10:58:38;;;;;;;4.50;1.50;;;11.90;99.90;;;;;;5095121;28;20491;-81
2023/03/31 11:01:31;;;;;;;3.13;1.63;;;11.80;99.90;;;;;;5095412;28;20082;-82
2023/03/31 11:04:24;;;;;;;3.72;1.50;;;11.90;99.90;;;;;;5094410;28;20048;-79
2023/03/31 11:07:12;;;;;;;7.13;1.52;;;12.00;99.90;;;;;;5094604;28;20175;-78
2023/03/31 11:09:40;;;;;;;3.00;1.60;;;12.10;99.90;;;;;;5095311;28;20074;-82
2023/03/31 11:12:18;;;;;;;3.00;1.50;;;12.20;99.90;;;;;;5094755;28;20549;-77
2023/03/31 11:15:04;;;;;;;5.22;1.65;;;12.50;99.90;;;;;;5095158;28;20506;-79
2023/03/31 11:17:39;;;;;;;5.05;1.60;;;12.30;99.90;;;;;;5094927;28;20426;-78
2023/03/31 11:20:05;;;;;;;4.57;1.60;;;12.40;99.90;;;;;;5095188;28;20044;-80
2023/03/31 11:22:31;;;;;;;3.58;1.33;;;12.30;99.90;;;;;;5094958;28;20140;-81
2023/03/31 11:25:24;;;;;;;3.90;1.35;;;12.40;99.90;;;;;;5093401;28;20131;-77
2023/03/31 11:28:19;;;;;;;2.75;1.27;;;12.30;99.90;;;;;;5063296;28;20492;-78
2023/03/31 11:30:49;;;;;;;3.90;1.60;;;12.30;99.90;;;;;;5094745;28;20048;-80
2023/03/31 11:33:36;;;;;;;6.00;1.60;;;12.40;99.90;;;;;;5094687;28;20059;-79
2023/03/31 11:36:20;;;;;;;5.55;1.70;;;12.40;99.90;;;;;;5094803;28;20056;-81
2023/03/31 11:39:13;;;;;;;4.30;1.52;;;12.40;99.90;;;;;;5093998;28;20050;-81
2023/03/31 11:41:49;;;;;;;4.60;1.73;;;12.40;99.90;;;;;;5094816;28;20130;-78
2023/03/31 11:44:18;;;;;;;5.05;2.00;;;12.40;99.90;;;;;;5094680;28;20079;-78
2023/03/31 11:46:46;;;;;;;5.72;1.70;;;12.40;99.90;;;;;;5094424;28;20395;-79
2023/03/31 11:49:21;;;;;;;2.72;1.65;;;12.40;99.90;;;;;;5094357;28;20099;-77
2023/03/31 11:52:11;;;;;;;6.35;2.42;;;12.30;99.90;;;;;;5094745;28;20073;-77
2023/03/31 11:55:04;;;;;;;4.60;2.20;;;12.40;99.90;;;;;;5093119;28;20100;-79
2023/03/31 11:57:46;;;;;;;7.65;2.45;;;12.30;99.90;;;;;;5094624;28;20036;-80
2023/03/31 12:00:19;;;;;;;5.07;2.10;;;12.30;99.90;;;;;;5094717;28;20083;-79
2023/03/31 12:03:03;;;;;;;5.07;1.92;;;12.40;99.90;;;;;;5094352;28;20139;-77
2023/03/31 12:05:31;;;;;;;8.65;2.05;;;12.40;99.90;;;;;;5093888;28;20508;-78
2023/03/31 12:08:15;;;;;;;6.55;1.95;;;12.40;99.90;;;;;;5093007;28;20048;-79
2023/03/31 12:10:48;;;;;;;7.03;1.98;;;12.30;99.90;;;;;;5093241;28;20047;-78
2023/03/31 12:13:22;;;;;;;6.93;1.60;;;12.30;99.90;;;;;;5094158;28;20476;-80
2023/03/31 12:16:05;;;;;;;4.47;1.67;;;12.30;99.90;;;;;;5093569;28;20048;-79
2023/03/31 12:18:48;;;;;;;12.60;2.53;;;12.30;99.90;;;;;;5093089;28;20055;-78
2023/03/31 12:21:14;;;;;;;7.30;2.55;;;12.30;99.90;;;;;;5094058;28;20055;-80
2023/03/31 12:23:43;;;;;;;8.63;2.20;;;12.30;99.90;;;;;;5094205;28;20395;-79
2023/03/31 12:26:18;;;;;;;8.07;2.35;;;12.40;99.90;;;;;;5092849;28;20036;-78
2023/03/31 12:28:45;;;;;;;5.35;2.15;;;12.50;99.90;;;;;;5093844;28;20044;-80
2023/03/31 12:31:19;;;;;;;6.90;2.40;;;12.60;99.90;;;;;;5093236;28;20083;-78
2023/03/31 12:34:01;;;;;;;7.60;2.35;;;12.90;99.90;;;;;;5093803;28;20127;-80
2023/03/31 12:36:32;;;;;;;6.13;2.30;;;13.20;99.90;;;;;;5092730;28;20040;-80
2023/03/31 12:39:28;;;;;;;10.38;2.63;;;13.50;99.90;;;;;;5072789;28;20530;-78
2023/03/31 12:42:12;;;;;;;6.13;2.58;;;13.50;99.90;;;;;;5092146;28;20055;-79
2023/03/31 12:45:05;;;;;;;7.25;2.53;;;13.60;99.90;;;;;;5093645;28;20342;-78
2023/03/31 12:47:43;;;;;;;10.35;2.45;;;13.80;99.90;;;;;;5089267;28;20047;-79
2023/03/31 12:50:27;;;;;;;;;;;13.90;99.90;;;;;;5090718;28;20105;-79
2023/03/31 12:53:10;;;;;;;11.32;2.70;;;13.90;99.90;;;;;;5088443;28;19927;-79
2023/03/31 12:55:39;;;;;;;9.50;2.70;;;13.80;99.90;;;;;;5083228;28;20044;-79
2023/03/31 12:58:28;;;;;;;12.30;3.13;;;13.70;99.90;;;;;;5077962;28;20052;-78
2023/03/31 13:01:32;;;;;;;12.82;3.13;;;13.50;99.90;;;;;;5077394;28;20052;-81
2023/03/31 13:04:20;;;;;;;12.05;2.78;;;13.50;99.90;;;;;;5094676;28;20052;-79
2023/03/31 13:06:51;;;;;;;7.43;2.33;;;13.40;99.90;;;;;;5097345;28;20032;-78
2023/03/31 13:09:16;;;;;;;14.63;3.10;;;13.30;99.90;;;;;;5097553;28;20036;-79
2023/03/31 13:11:48;;;;;;;13.63;2.93;;;13.40;99.90;;;;;;5096372;28;20059;-83
2023/03/31 13:14:23;;;;;;;9.18;2.55;;;13.50;99.90;;;;;;5094302;28;20075;-78